Time;durP1;ratioP1;P1;durP2;ratioP2;P2;SDS_P1;SDS_P2;PMS_P1;PMS_P2;Temp;Humidity;BMP_temperature;BMP_pressure;BME280_temperature;BME280_humidity;BME280_pressure;Samples;Min_cycle;Max_cycle;Signal;HPM_P1;HPM_P2
2023/07/31 00:01:18;;;;;;;3.53;1.08;;;;;;;;;;5052004;28;20045;-79
2023/07/31 00:03:46;;;;;;;7.13;1.20;;;;;;;;;;4996608;28;20041;-81
2023/07/31 00:06:13;;;;;;;8.25;1.02;;;;;;;;;;5038535;28;20119;-80
2023/07/31 00:08:39;;;;;;;4.50;1.15;;;;;;;;;;5052000;28;20044;-80
2023/07/31 00:11:06;;;;;;;4.95;1.08;;;;;;;;;;5051930;28;20116;-78
2023/07/31 00:13:32;;;;;;;5.70;1.20;;;;;;;;;;5052792;28;20049;-79
2023/07/31 00:15:59;;;;;;;6.55;1.25;;;;;;;;;;5052953;28;20032;-80
2023/07/31 00:18:26;;;;;;;6.55;1.10;;;;;;;;;;5048624;28;20095;-79
2023/07/31 00:20:52;;;;;;;4.28;1.02;;;;;;;;;;5032608;28;20051;-81
2023/07/31 00:23:19;;;;;;;3.83;0.98;;;;;;;;;;5048951;28;20042;-80
2023/07/31 00:25:45;;;;;;;3.30;1.00;;;;;;;;;;5048097;28;20037;-81
2023/07/31 00:28:12;;;;;;;4.35;1.55;;;;;;;;;;5048637;28;20067;-78
2023/07/31 00:30:39;;;;;;;5.55;1.35;;;;;;;;;;5019701;28;20039;-79
2023/07/31 00:33:05;;;;;;;3.85;0.98;;;;;;;;;;5051531;28;20037;-80
2023/07/31 00:35:32;;;;;;;3.88;1.13;;;;;;;;;;5050664;28;20475;-79
2023/07/31 00:38:00;;;;;;;3.90;1.35;;;;;;;;;;5031921;28;20055;-81
2023/07/31 00:40:26;;;;;;;3.58;1.17;;;;;;;;;;5012880;28;20095;-78
2023/07/31 00:42:53;;;;;;;2.85;0.90;;;;;;;;;;5031014;28;20041;-81
2023/07/31 00:45:22;;;;;;;5.25;1.35;;;;;;;;;;5031869;28;20046;-80
2023/07/31 00:47:49;;;;;;;6.43;1.25;;;;;;;;;;5031858;28;20045;-79
2023/07/31 00:50:17;;;;;;;4.70;1.15;;;;;;;;;;5047415;28;20037;-79
2023/07/31 00:52:44;;;;;;;5.25;1.33;;;;;;;;;;5031175;28;20263;-80
2023/07/31 00:55:11;;;;;;;6.65;1.10;;;;;;;;;;5046614;28;20090;-78
2023/07/31 00:57:38;;;;;;;4.57;0.90;;;;;;;;;;5051851;28;20047;-79
2023/07/31 01:00:05;;;;;;;4.60;1.13;;;;;;;;;;5033521;28;20095;-81
2023/07/31 01:02:31;;;;;;;6.63;1.65;;;;;;;;;;5030983;28;20446;-81
2023/07/31 01:04:58;;;;;;;2.85;1.00;;;;;;;;;;5032795;28;20120;-80
2023/07/31 01:07:51;;;;;;;6.20;1.00;;;;;;;;;;5030761;28;20220;-79
2023/07/31 01:10:21;;;;;;;6.43;1.45;;;;;;;;;;5026067;28;20051;-81
2023/07/31 01:12:51;;;;;;;3.08;1.20;;;;;;;;;;5031471;28;20118;-81
2023/07/31 01:15:17;;;;;;;4.40;1.00;;;;;;;;;;5050069;28;20041;-79
2023/07/31 01:17:44;;;;;;;8.85;1.30;;;;;;;;;;5051208;28;20044;-81
2023/07/31 01:20:13;;;;;;;9.00;1.23;;;;;;;;;;5054412;28;20041;-81
2023/07/31 01:22:48;;;;;;;8.02;1.30;;;;;;;;;;5042684;28;20045;-80
2023/07/31 01:25:36;;;;;;;7.75;1.20;;;;;;;;;;5037134;28;20044;-80
2023/07/31 01:28:12;;;;;;;7.40;1.20;;;;;;;;;;5055696;28;20049;-81
2023/07/31 01:30:46;;;;;;;6.35;1.00;;;;;;;;;;5031797;28;20097;-80
2023/07/31 01:33:18;;;;;;;4.00;1.35;;;;;;;;;;5017374;28;20041;-80
2023/07/31 01:35:48;;;;;;;3.67;1.10;;;;;;;;;;5046854;28;20041;-78
2023/07/31 01:38:15;;;;;;;6.57;1.85;;;;;;;;;;5034454;28;20041;-80
2023/07/31 01:40:42;;;;;;;6.50;1.40;;;;;;;;;;5030539;28;20034;-77
2023/07/31 01:43:08;;;;;;;5.30;1.00;;;;;;;;;;5039556;28;20129;-76
2023/07/31 01:45:35;;;;;;;5.75;0.98;;;;;;;;;;5025795;28;20052;-79
2023/07/31 01:48:04;;;;;;;3.65;1.33;;;;;;;;;;5019376;28;20045;-76
2023/07/31 01:50:34;;;;;;;5.78;1.40;;;;;;;;;;5035784;28;20069;-76
2023/07/31 01:53:01;;;;;;;4.20;1.10;;;;;;;;;;5047817;28;20550;-79
2023/07/31 01:55:27;;;;;;;3.03;1.08;;;;;;;;;;5032121;28;20088;-77
2023/07/31 01:57:54;;;;;;;6.80;1.52;;;;;;;;;;5050039;28;20033;-79
2023/07/31 02:00:21;;;;;;;5.07;1.13;;;;;;;;;;5032404;28;20050;-79
2023/07/31 02:02:47;;;;;;;5.88;1.27;;;;;;;;;;5051584;28;20483;-80
2023/07/31 02:05:14;;;;;;;3.63;1.23;;;;;;;;;;5031841;28;20051;-79
2023/07/31 02:07:44;;;;;;;4.78;1.48;;;;;;;;;;5008084;28;20049;-79
2023/07/31 02:10:10;;;;;;;4.03;1.02;;;;;;;;;;5021758;28;20587;-79
2023/07/31 02:12:37;;;;;;;8.40;1.88;;;;;;;;;;5000733;28;20140;-79
2023/07/31 02:15:04;;;;;;;4.28;1.35;;;;;;;;;;5024079;28;20535;-80
2023/07/31 02:17:31;;;;;;;4.25;1.50;;;;;;;;;;5019430;28;20488;-78
2023/07/31 02:19:59;;;;;;;8.73;1.60;;;;;;;;;;5051673;28;20048;-79
2023/07/31 02:22:26;;;;;;;6.53;1.55;;;;;;;;;;5051232;28;20039;-80
2023/07/31 02:24:53;;;;;;;7.15;1.73;;;;;;;;;;5033038;28;20479;-80
2023/07/31 02:27:24;;;;;;;6.78;1.88;;;;;;;;;;5032977;28;20364;-80
2023/07/31 02:29:50;;;;;;;6.38;1.67;;;;;;;;;;5052041;28;20055;-80
2023/07/31 02:32:17;;;;;;;3.90;1.73;;;;;;;;;;5031986;28;20068;-79
2023/07/31 02:34:44;;;;;;;4.60;1.77;;;;;;;;;;5033717;28;20128;-80
2023/07/31 02:37:13;;;;;;;6.85;1.65;;;;;;;;;;5040613;28;20045;-79
2023/07/31 02:39:40;;;;;;;7.68;1.92;;;;;;;;;;5050617;28;20853;-80
2023/07/31 02:42:06;;;;;;;8.25;1.92;;;;;;;;;;5051190;28;20036;-78
2023/07/31 02:44:36;;;;;;;7.97;1.88;;;;;;;;;;5051520;28;20102;-81
2023/07/31 02:47:05;;;;;;;9.27;1.80;;;;;;;;;;5056951;28;20134;-78
2023/07/31 02:49:35;;;;;;;5.30;1.83;;;;;;;;;;5050688;28;20037;-80
2023/07/31 02:52:02;;;;;;;9.57;2.13;;;;;;;;;;5033810;28;20574;-78
2023/07/31 02:54:31;;;;;;;7.97;2.00;;;;;;;;;;5050282;28;20070;-79
2023/07/31 02:56:57;;;;;;;7.70;2.20;;;;;;;;;;5032414;28;20051;-81
2023/07/31 02:59:25;;;;;;;8.02;1.90;;;;;;;;;;5051180;28;20110;-79
2023/07/31 03:01:51;;;;;;;7.97;2.33;;;;;;;;;;5030521;28;20033;-80
2023/07/31 03:04:18;;;;;;;6.20;2.20;;;;;;;;;;5049748;28;20094;-79
2023/07/31 03:06:45;;;;;;;4.85;1.90;;;;;;;;;;5049624;28;20098;-79
2023/07/31 03:09:14;;;;;;;6.85;2.05;;;;;;;;;;5051202;28;20067;-79
2023/07/31 03:11:40;;;;;;;11.30;1.90;;;;;;;;;;5021062;28;20458;-79
2023/07/31 03:14:07;;;;;;;7.00;2.28;;;;;;;;;;5031397;28;20052;-78
2023/07/31 03:16:34;;;;;;;7.25;1.98;;;;;;;;;;5032473;28;20458;-79
2023/07/31 03:19:00;;;;;;;6.68;2.03;;;;;;;;;;5050250;28;20033;-82
2023/07/31 03:21:27;;;;;;;5.55;1.85;;;;;;;;;;5049430;28;20045;-80
2023/07/31 03:23:54;;;;;;;8.73;2.33;;;;;;;;;;5049825;28;20044;-80
2023/07/31 03:26:23;;;;;;;8.80;2.17;;;;;;;;;;5046857;28;20041;-78
2023/07/31 03:28:53;;;;;;;7.63;1.85;;;;;;;;;;5027812;28;20559;-79
2023/07/31 03:31:23;;;;;;;7.72;2.15;;;;;;;;;;5033574;28;20032;-80
2023/07/31 03:33:51;;;;;;;12.18;2.30;;;;;;;;;;5025402;28;20061;-80
2023/07/31 03:36:18;;;;;;;4.47;2.00;;;;;;;;;;5029045;28;20041;-80
2023/07/31 03:38:46;;;;;;;11.18;3.05;;;;;;;;;;5015056;28;20072;-83
2023/07/31 03:41:12;;;;;;;9.70;2.08;;;;;;;;;;5037541;28;20130;-79
2023/07/31 03:43:39;;;;;;;9.88;2.20;;;;;;;;;;5033348;28;20071;-82
2023/07/31 03:46:05;;;;;;;10.02;2.47;;;;;;;;;;5032137;28;20037;-80
2023/07/31 03:48:32;;;;;;;6.47;2.40;;;;;;;;;;5032808;28;20053;-81
2023/07/31 03:50:59;;;;;;;8.68;2.45;;;;;;;;;;5015110;28;20053;-82
2023/07/31 03:53:25;;;;;;;12.73;2.42;;;;;;;;;;5032584;28;20141;-82
2023/07/31 03:55:52;;;;;;;8.32;2.50;;;;;;;;;;5034538;28;20111;-81
2023/07/31 03:58:18;;;;;;;11.95;3.30;;;;;;;;;;5040253;28;20057;-81
2023/07/31 04:00:45;;;;;;;6.90;2.50;;;;;;;;;;5057415;28;20060;-79
2023/07/31 04:03:12;;;;;;;12.60;2.95;;;;;;;;;;5040263;28;20104;-80
2023/07/31 04:05:39;;;;;;;5.55;2.40;;;;;;;;;;5051227;28;20066;-80
2023/07/31 04:08:06;;;;;;;8.85;2.20;;;;;;;;;;5009609;28;20095;-80
2023/07/31 04:10:33;;;;;;;10.38;2.58;;;;;;;;;;5031724;28;20055;-79
2023/07/31 04:13:00;;;;;;;13.82;3.40;;;;;;;;;;5015730;28;20063;-79
2023/07/31 04:15:30;;;;;;;6.15;2.55;;;;;;;;;;5033755;28;20054;-80
2023/07/31 04:17:57;;;;;;;7.95;2.20;;;;;;;;;;5013663;28;20041;-81
2023/07/31 04:20:23;;;;;;;6.93;2.30;;;;;;;;;;5016183;28;20048;-78
2023/07/31 04:22:53;;;;;;;12.18;2.78;;;;;;;;;;5032778;28;20431;-79
2023/07/31 04:25:20;;;;;;;7.22;2.50;;;;;;;;;;5019488;28;20045;-79
2023/07/31 04:27:47;;;;;;;7.13;2.10;;;;;;;;;;5032474;28;20546;-81
2023/07/31 04:30:14;;;;;;;4.15;2.35;;;;;;;;;;5030823;28;20044;-79
2023/07/31 04:32:40;;;;;;;6.10;2.40;;;;;;;;;;5024358;28;20439;-77
2023/07/31 04:35:07;;;;;;;9.02;2.53;;;;;;;;;;5030405;28;20120;-80
2023/07/31 04:37:38;;;;;;;6.40;2.30;;;;;;;;;;5047932;28;20049;-79
2023/07/31 04:40:08;;;;;;;8.02;2.78;;;;;;;;;;5048578;28;20128;-79
2023/07/31 04:42:35;;;;;;;9.40;2.65;;;;;;;;;;5030534;28;20052;-77
2023/07/31 04:45:01;;;;;;;11.27;2.80;;;;;;;;;;5015626;28;20373;-80
2023/07/31 04:47:28;;;;;;;9.95;2.15;;;;;;;;;;5006646;28;20065;-79
2023/07/31 04:49:55;;;;;;;8.10;2.22;;;;;;;;;;5010785;28;20572;-79
2023/07/31 04:52:25;;;;;;;6.15;2.10;;;;;;;;;;5015002;28;20215;-80
2023/07/31 04:54:52;;;;;;;6.95;2.17;;;;;;;;;;4993545;28;20542;-81
2023/07/31 04:57:21;;;;;;;5.57;1.83;;;;;;;;;;5004802;28;20557;-79
2023/07/31 04:59:51;;;;;;;6.65;2.42;;;;;;;;;;5049234;28;20037;-80
2023/07/31 05:02:18;;;;;;;5.85;1.98;;;;;;;;;;5014233;28;20144;-80
2023/07/31 05:04:47;;;;;;;7.95;2.30;;;;;;;;;;5027187;28;20045;-80
2023/07/31 05:07:14;;;;;;;4.13;1.92;;;;;;;;;;5030139;28;20086;-81
2023/07/31 05:09:44;;;;;;;4.43;1.83;;;;;;;;;;5047392;28;20497;-79
2023/07/31 05:12:10;;;;;;;7.65;2.38;;;;;;;;;;5028047;28;20129;-80
2023/07/31 05:14:37;;;;;;;6.25;1.83;;;;;;;;;;5031110;28;20561;-80
2023/07/31 05:17:04;;;;;;;5.60;1.80;;;;;;;;;;5027550;28;20049;-80
2023/07/31 05:19:31;;;;;;;5.75;1.83;;;;;;;;;;5031739;28;20099;-79
2023/07/31 05:21:58;;;;;;;5.20;1.73;;;;;;;;;;5022374;28;20041;-77
2023/07/31 05:24:25;;;;;;;6.90;2.05;;;;;;;;;;5013682;28;20049;-77
2023/07/31 05:26:52;;;;;;;4.70;1.90;;;;;;;;;;5029697;28;20041;-79
2023/07/31 05:29:18;;;;;;;5.47;1.65;;;;;;;;;;5030601;28;20059;-80
2023/07/31 05:31:45;;;;;;;6.93;2.00;;;;;;;;;;4997961;28;20072;-80
2023/07/31 05:34:12;;;;;;;9.55;1.80;;;;;;;;;;5009359;28;20148;-81
2023/07/31 05:36:39;;;;;;;9.27;1.75;;;;;;;;;;5027454;28;20057;-80
2023/07/31 05:39:08;;;;;;;6.22;2.05;;;;;;;;;;4999499;28;20432;-79
2023/07/31 05:41:35;;;;;;;5.50;1.85;;;;;;;;;;5025653;28;20059;-78
2023/07/31 05:44:02;;;;;;;4.53;1.55;;;;;;;;;;5018224;28;20069;-80
2023/07/31 05:46:29;;;;;;;3.72;1.88;;;;;;;;;;5010844;28;20041;-81
2023/07/31 05:48:56;;;;;;;5.20;2.03;;;;;;;;;;5021428;28;20046;-80
2023/07/31 05:51:22;;;;;;;3.22;1.55;;;;;;;;;;5004233;28;20049;-81
2023/07/31 05:53:49;;;;;;;4.93;1.70;;;;;;;;;;4994812;28;20546;-79
2023/07/31 05:56:16;;;;;;;8.95;1.90;;;;;;;;;;5000541;28;20526;-78
2023/07/31 05:58:42;;;;;;;6.35;1.73;;;;;;;;;;5028065;28;20116;-80
2023/07/31 06:01:09;;;;;;;6.85;1.70;;;;;;;;;;5013473;28;20049;-77
2023/07/31 06:03:36;;;;;;;6.90;2.05;;;;;;;;;;5034897;28;20139;-79
2023/07/31 06:06:03;;;;;;;8.30;2.10;;;;;;;;;;5020268;28;20587;-81
2023/07/31 06:08:30;;;;;;;5.68;1.65;;;;;;;;;;5035975;28;20116;-80
2023/07/31 06:10:57;;;;;;;4.40;1.27;;;;;;;;;;5043940;28;20515;-81
2023/07/31 06:13:24;;;;;;;4.47;1.58;;;;;;;;;;5033043;28;20600;-79
2023/07/31 06:15:51;;;;;;;9.43;1.70;;;;;;;;;;5011218;28;20076;-80
2023/07/31 06:18:18;;;;;;;6.28;1.48;;;;;;;;;;5030501;28;20301;-82
2023/07/31 06:20:45;;;;;;;5.60;1.50;;;;;;;;;;5017503;28;20052;-78
2023/07/31 06:23:11;;;;;;;4.53;1.50;;;;;;;;;;5033579;28;20141;-80
2023/07/31 06:25:38;;;;;;;5.05;1.80;;;;;;;;;;5030632;28;20045;-80
2023/07/31 06:28:05;;;;;;;9.25;1.90;;;;;;;;;;5032838;28;20140;-78
2023/07/31 06:30:31;;;;;;;7.03;1.73;;;;;;;;;;5033592;28;20075;-81
2023/07/31 06:33:01;;;;;;;4.70;1.65;;;;;;;;;;5052716;28;20371;-81
2023/07/31 06:35:28;;;;;;;7.13;1.58;;;;;;;;;;5050678;28;20041;-78
2023/07/31 06:37:55;;;;;;;4.65;1.58;;;;;;;;;;5018184;28;20562;-79
2023/07/31 06:40:22;;;;;;;5.25;1.55;;;;;;;;;;5050971;28;20131;-80
2023/07/31 06:42:48;;;;;;;4.75;1.50;;;;;;;;;;5028913;28;20084;-80
2023/07/31 06:45:15;;;;;;;5.47;1.70;;;;;;;;;;5017089;28;20049;-78
2023/07/31 06:47:42;;;;;;;6.03;1.30;;;;;;;;;;5014010;28;20301;-80
2023/07/31 06:50:09;;;;;;;4.22;1.45;;;;;;;;;;5013338;28;20050;-81
2023/07/31 06:52:36;;;;;;;5.20;1.38;;;;;;;;;;5014192;28;20103;-81
2023/07/31 06:55:04;;;;;;;2.78;1.38;;;;;;;;;;5012321;28;20099;-78
2023/07/31 06:57:30;;;;;;;4.93;1.40;;;;;;;;;;5010808;28;20072;-81
2023/07/31 06:59:57;;;;;;;5.28;1.60;;;;;;;;;;4997932;28;20041;-81
2023/07/31 07:02:24;;;;;;;6.22;1.73;;;;;;;;;;5002238;28;20165;-80
2023/07/31 07:04:51;;;;;;;5.45;1.30;;;;;;;;;;5008635;28;20110;-81
2023/07/31 07:07:18;;;;;;;8.23;1.52;;;;;;;;;;5010651;28;20091;-81
2023/07/31 07:09:47;;;;;;;5.28;1.77;;;;;;;;;;5013774;28;20045;-80
2023/07/31 07:12:14;;;;;;;7.38;1.70;;;;;;;;;;5026796;28;20037;-79
2023/07/31 07:14:41;;;;;;;5.50;1.30;;;;;;;;;;5010235;28;20673;-79
2023/07/31 07:17:08;;;;;;;8.63;1.75;;;;;;;;;;5006923;28;20046;-78
2023/07/31 07:19:35;;;;;;;6.78;1.55;;;;;;;;;;5018664;28;20045;-79
2023/07/31 07:22:01;;;;;;;4.20;1.40;;;;;;;;;;5010512;28;20045;-79
2023/07/31 07:24:28;;;;;;;12.48;1.60;;;;;;;;;;5027788;28;20057;-80
2023/07/31 07:26:55;;;;;;;4.38;1.60;;;;;;;;;;5012814;28;20519;-79
2023/07/31 07:29:22;;;;;;;4.63;1.60;;;;;;;;;;5033580;28;20056;-81
2023/07/31 07:31:49;;;;;;;4.05;1.65;;;;;;;;;;5035038;28;20053;-77
2023/07/31 07:34:15;;;;;;;5.40;1.75;;;;;;;;;;5051741;28;20104;-81
2023/07/31 07:36:42;;;;;;;5.18;1.40;;;;;;;;;;5027171;28;20053;-79
2023/07/31 07:39:10;;;;;;;6.97;1.70;;;;;;;;;;5034074;28;20045;-80
2023/07/31 07:41:37;;;;;;;5.30;1.73;;;;;;;;;;5031495;28;20314;-77
2023/07/31 07:44:06;;;;;;;3.20;1.50;;;;;;;;;;5053078;28;20076;-79
2023/07/31 07:46:33;;;;;;;7.07;1.80;;;;;;;;;;5035123;28;20045;-78
2023/07/31 07:49:00;;;;;;;7.22;1.75;;;;;;;;;;5012960;28;20041;-79
2023/07/31 07:51:27;;;;;;;5.75;1.83;;;;;;;;;;5010582;28;20071;-79
2023/07/31 07:53:53;;;;;;;6.05;1.67;;;;;;;;;;5035360;28;20048;-79
2023/07/31 07:56:20;;;;;;;14.32;1.73;;;;;;;;;;5003243;28;20065;-78
2023/07/31 07:58:50;;;;;;;4.20;1.35;;;;;;;;;;5038982;28;20045;-80
2023/07/31 08:01:16;;;;;;;5.13;1.90;;;;;;;;;;5035132;28;20047;-81
2023/07/31 08:03:43;;;;;;;6.95;2.08;;;;;;;;;;5051543;28;20037;-80
2023/07/31 08:06:12;;;;;;;6.20;1.73;;;;;;;;;;5049488;28;20079;-76
2023/07/31 08:08:38;;;;;;;5.53;1.58;;;;;;;;;;5024901;28;20159;-80
2023/07/31 08:11:05;;;;;;;4.90;1.50;;;;;;;;;;5032949;28;20045;-77
2023/07/31 08:13:32;;;;;;;5.35;1.48;;;;;;;;;;5050185;28;20631;-81
2023/07/31 08:15:58;;;;;;;7.07;1.80;;;;;;;;;;5053950;28;20041;-78
2023/07/31 08:18:25;;;;;;;7.22;2.13;;;;;;;;;;5040894;28;20059;-80
2023/07/31 08:20:52;;;;;;;4.72;1.65;;;;;;;;;;5015388;28;20445;-82
2023/07/31 08:23:18;;;;;;;5.50;1.50;;;;;;;;;;5031574;28;20037;-83
2023/07/31 08:25:46;;;;;;;4.70;1.85;;;;;;;;;;5047236;28;20037;-81
2023/07/31 08:28:12;;;;;;;6.53;1.75;;;;;;;;;;5049290;28;20514;-82
2023/07/31 08:30:42;;;;;;;9.05;2.05;;;;;;;;;;5049605;28;20512;-80
2023/07/31 08:33:09;;;;;;;4.47;1.80;;;;;;;;;;5050314;28;20047;-80
2023/07/31 08:35:36;;;;;;;4.80;1.70;;;;;;;;;;5035907;28;20128;-80
2023/07/31 08:38:02;;;;;;;12.48;1.83;;;;;;;;;;5052489;28;20052;-80
2023/07/31 08:40:29;;;;;;;10.38;2.10;;;;;;;;;;5050341;28;20041;-77
2023/07/31 08:43:02;;;;;;;5.07;1.70;;;;;;;;;;5032904;28;20120;-79
2023/07/31 08:45:29;;;;;;;6.65;1.98;;;;;;;;;;5033124;28;20045;-81
2023/07/31 08:47:57;;;;;;;6.20;1.40;;;;;;;;;;5012717;28;20133;-79
2023/07/31 08:50:23;;;;;;;5.32;1.60;;;;;;;;;;5030421;28;20037;-79
2023/07/31 08:52:53;;;;;;;3.72;1.52;;;;;;;;;;5009598;28;20117;-81
2023/07/31 08:55:25;;;;;;;4.10;1.65;;;;;;;;;;5017884;28;20030;-82
2023/07/31 08:57:52;;;;;;;7.45;1.88;;;;;;;;;;5013595;28;20411;-80
2023/07/31 09:00:21;;;;;;;7.72;1.90;;;;;;;;;;5029588;28;20038;-80
2023/07/31 09:03:00;;;;;;;5.50;1.70;;;;;;;;;;5049470;28;20041;-79
2023/07/31 09:05:30;;;;;;;6.30;1.88;;;;;;;;;;5015952;28;20045;-78
2023/07/31 09:07:57;;;;;;;6.03;1.65;;;;;;;;;;5036739;28;20125;-79
2023/07/31 09:10:25;;;;;;;4.25;1.70;;;;;;;;;;5032110;28;20117;-80
2023/07/31 09:12:52;;;;;;;4.13;1.65;;;;;;;;;;5046937;28;20087;-79
2023/07/31 09:15:19;;;;;;;3.75;1.52;;;;;;;;;;5050912;28;20045;-79
2023/07/31 09:18:03;;;;;;;7.25;1.88;;;;;;;;;;5052638;28;20348;-79
2023/07/31 09:20:29;;;;;;;10.10;1.90;;;;;;;;;;5048240;28;20119;-77
2023/07/31 09:22:56;;;;;;;5.30;1.50;;;;;;;;;;5030105;28;20037;-78
2023/07/31 09:25:24;;;;;;;5.13;2.08;;;;;;;;;;5046314;28;20144;-80
2023/07/31 09:27:50;;;;;;;6.72;1.80;;;;;;;;;;5047294;28;20033;-79
2023/07/31 09:30:18;;;;;;;3.53;1.52;;;;;;;;;;5048534;28;20033;-79
2023/07/31 09:32:45;;;;;;;6.80;1.85;;;;;;;;;;5050404;28;20044;-79
2023/07/31 09:35:15;;;;;;;4.70;1.55;;;;;;;;;;5031956;28;20060;-78
2023/07/31 09:37:42;;;;;;;6.85;1.98;;;;;;;;;;5045945;28;20529;-78
2023/07/31 09:40:09;;;;;;;5.28;1.70;;;;;;;;;;5047775;28;20083;-79
2023/07/31 09:42:35;;;;;;;5.57;1.83;;;;;;;;;;5050162;28;20036;-79
2023/07/31 09:45:11;;;;;;;8.02;2.25;;;;;;;;;;5041187;28;20049;-79
2023/07/31 09:47:37;;;;;;;;;;;;;;;;;;5028616;28;20063;-79
2023/07/31 09:50:07;;;;;;;11.77;2.00;;;;;;;;;;5052282;28;20045;-78
2023/07/31 09:52:34;;;;;;;6.43;2.03;;;;;;;;;;5039889;28;20419;-79
2023/07/31 09:55:00;;;;;;;3.92;1.40;;;;;;;;;;5031411;28;20068;-79
2023/07/31 09:57:27;;;;;;;5.78;1.48;;;;;;;;;;5030025;28;22221;-80
2023/07/31 09:59:55;;;;;;;5.32;1.88;;;;;;;;;;5035232;28;20045;-80
2023/07/31 10:02:22;;;;;;;3.83;1.70;;;;;;;;;;5051271;28;20037;-79
2023/07/31 10:04:50;;;;;;;3.13;1.42;;;;;;;;;;5038114;28;20057;-80
2023/07/31 10:07:18;;;;;;;5.05;1.50;;;;;;;;;;5043024;28;20040;-79
2023/07/31 10:09:45;;;;;;;7.40;1.50;;;;;;;;;;5037499;28;20045;-79
2023/07/31 10:12:13;;;;;;;5.25;1.85;;;;;;;;;;5039531;28;20034;-80
2023/07/31 10:14:41;;;;;;;8.88;1.55;;;;;;;;;;5028662;28;20129;-79
2023/07/31 10:17:08;;;;;;;4.63;1.50;;;;;;;;;;5031772;28;20041;-77
2023/07/31 10:19:34;;;;;;;4.93;1.55;;;;;;;;;;5033604;28;20057;-79
2023/07/31 10:22:02;;;;;;;3.88;1.40;;;;;;;;;;5024655;28;20038;-80
2023/07/31 10:24:30;;;;;;;4.85;1.40;;;;;;;;;;5030816;28;20105;-79
2023/07/31 10:26:58;;;;;;;6.53;1.80;;;;;;;;;;5013734;28;20502;-80
2023/07/31 10:29:24;;;;;;;2.97;1.05;;;;;;;;;;5028747;28;20128;-80
2023/07/31 10:31:51;;;;;;;5.05;1.33;;;;;;;;;;5031439;28;20037;-79
2023/07/31 10:34:18;;;;;;;5.75;1.80;;;;;;;;;;5025222;28;20220;-78
2023/07/31 10:36:45;;;;;;;6.78;1.70;;;;;;;;;;5023625;28;20037;-81
2023/07/31 10:39:30;;;;;;;4.70;1.80;;;;;;;;;;5029575;28;20038;-76
2023/07/31 10:41:56;;;;;;;5.35;2.10;;;;;;;;;;5026385;28;20045;-78
2023/07/31 10:44:23;;;;;;;4.20;1.35;;;;;;;;;;5031299;28;20068;-80
2023/07/31 10:46:49;;;;;;;4.28;1.63;;;;;;;;;;5038607;28;20049;-79
2023/07/31 10:49:20;;;;;;;3.28;1.40;;;;;;;;;;5042171;28;20503;-78
2023/07/31 10:51:47;;;;;;;4.13;1.30;;;;;;;;;;5031646;28;20418;-77
2023/07/31 10:54:15;;;;;;;3.17;1.20;;;;;;;;;;5042258;28;20041;-78
2023/07/31 10:56:46;;;;;;;3.92;1.50;;;;;;;;;;5030678;28;20137;-80
2023/07/31 10:59:13;;;;;;;3.65;1.30;;;;;;;;;;5021887;28;20103;-78
2023/07/31 11:01:54;;;;;;;4.07;1.30;;;;;;;;;;5032756;28;20136;-80
2023/07/31 11:04:24;;;;;;;3.90;1.30;;;;;;;;;;5029487;28;20128;-80
2023/07/31 11:06:58;;;;;;;5.78;1.33;;;;;;;;;;5024026;28;20041;-80
2023/07/31 11:09:34;;;;;;;4.60;1.30;;;;;;;;;;5028320;28;20080;-78
2023/07/31 11:12:01;;;;;;;5.30;1.75;;;;;;;;;;5030175;28;20052;-80
2023/07/31 11:14:27;;;;;;;4.47;1.52;;;;;;;;;;5022437;28;20414;-78
2023/07/31 11:16:54;;;;;;;3.00;1.30;;;;;;;;;;5027949;28;20053;-80
2023/07/31 11:19:22;;;;;;;2.83;1.38;;;;;;;;;;5024283;28;20042;-77
2023/07/31 11:21:49;;;;;;;4.32;1.33;;;;;;;;;;5030313;28;20120;-79
2023/07/31 11:24:16;;;;;;;5.82;1.40;;;;;;;;;;5031795;28;20042;-77
2023/07/31 11:26:52;;;;;;;3.80;1.40;;;;;;;;;;5025958;28;20044;-78
2023/07/31 11:29:19;;;;;;;9.30;1.50;;;;;;;;;;5039289;28;20037;-78
2023/07/31 11:31:46;;;;;;;3.03;1.40;;;;;;;;;;5037969;28;20049;-80
2023/07/31 11:34:13;;;;;;;4.13;1.65;;;;;;;;;;5049795;28;20044;-78
2023/07/31 11:36:40;;;;;;;5.18;1.67;;;;;;;;;;5031131;28;20033;-79
2023/07/31 11:39:08;;;;;;;5.20;1.52;;;;;;;;;;5040390;28;20052;-76
2023/07/31 11:41:35;;;;;;;3.00;1.30;;;;;;;;;;5021932;28;20041;-80
2023/07/31 11:44:01;;;;;;;4.18;1.50;;;;;;;;;;5030109;28;20030;-80
2023/07/31 11:46:46;;;;;;;3.50;1.40;;;;;;;;;;5032345;28;20120;-79
2023/07/31 11:49:14;;;;;;;4.28;1.60;;;;;;;;;;5043973;28;20041;-79
2023/07/31 11:51:41;;;;;;;6.03;1.60;;;;;;;;;;5041669;28;20551;-80
2023/07/31 11:54:08;;;;;;;4.50;1.60;;;;;;;;;;5041272;28;20106;-75
2023/07/31 11:56:34;;;;;;;8.68;1.67;;;;;;;;;;5028149;28;20037;-81
2023/07/31 11:59:03;;;;;;;4.50;1.45;;;;;;;;;;5045817;28;20044;-79
2023/07/31 12:01:30;;;;;;;4.18;1.50;;;;;;;;;;5039769;28;20064;-79
2023/07/31 12:03:59;;;;;;;4.93;1.38;;;;;;;;;;5055725;28;20041;-80
2023/07/31 12:06:35;;;;;;;6.07;1.77;;;;;;;;;;5029625;28;20514;-78
2023/07/31 12:09:03;;;;;;;6.35;1.92;;;;;;;;;;5038611;28;20073;-80
2023/07/31 12:11:30;;;;;;;2.75;1.38;;;;;;;;;;5032861;28;20137;-80
2023/07/31 12:13:56;;;;;;;5.80;1.50;;;;;;;;;;5048114;28;20033;-79
2023/07/31 12:16:26;;;;;;;2.75;1.20;;;;;;;;;;5042307;28;20105;-80
2023/07/31 12:18:53;;;;;;;6.60;1.77;;;;;;;;;;5038562;28;20037;-80
2023/07/31 12:21:19;;;;;;;5.22;1.50;;;;;;;;;;5039431;28;20045;-81
2023/07/31 12:23:46;;;;;;;3.55;1.33;;;;;;;;;;5030716;28;20041;-78
2023/07/31 12:26:14;;;;;;;3.28;1.30;;;;;;;;;;5011951;28;20040;-79
2023/07/31 12:28:44;;;;;;;5.05;1.42;;;;;;;;;;5035274;28;20056;-79
2023/07/31 12:31:14;;;;;;;5.72;1.60;;;;;;;;;;5032421;28;20060;-79
2023/07/31 12:33:41;;;;;;;4.22;1.67;;;;;;;;;;5051094;28;20079;-81
2023/07/31 12:36:14;;;;;;;5.93;1.77;;;;;;;;;;5046201;28;20075;-77
2023/07/31 12:38:41;;;;;;;3.75;1.30;;;;;;;;;;5024259;28;20088;-79
2023/07/31 12:41:08;;;;;;;4.47;1.40;;;;;;;;;;5034894;28;20087;-76
2023/07/31 12:43:36;;;;;;;5.93;1.75;;;;;;;;;;5022543;28;20068;-79
2023/07/31 12:46:03;;;;;;;4.68;1.60;;;;;;;;;;5037217;28;20052;-80
2023/07/31 12:48:30;;;;;;;6.82;1.30;;;;;;;;;;5040567;28;20064;-80
2023/07/31 12:50:56;;;;;;;3.17;1.65;;;;;;;;;;5043478;28;20048;-80
2023/07/31 12:53:23;;;;;;;3.30;1.60;;;;;;;;;;5038972;28;20130;-79
2023/07/31 12:55:50;;;;;;;3.13;1.60;;;;;;;;;;5036196;28;20077;-80
2023/07/31 12:58:16;;;;;;;4.53;1.40;;;;;;;;;;5035964;28;20048;-79
2023/07/31 13:00:43;;;;;;;3.70;1.40;;;;;;;;;;5030374;28;20041;-78
2023/07/31 13:03:10;;;;;;;3.03;1.50;;;;;;;;;;5035058;28;20041;-79
2023/07/31 13:05:37;;;;;;;4.00;1.40;;;;;;;;;;5023669;28;20095;-79
2023/07/31 13:08:04;;;;;;;4.03;1.40;;;;;;;;;;5040259;28;20045;-81
2023/07/31 13:10:30;;;;;;;4.13;1.42;;;;;;;;;;5036032;28;20049;-79
2023/07/31 13:12:57;;;;;;;4.55;1.58;;;;;;;;;;5039994;28;20045;-80
2023/07/31 13:15:24;;;;;;;5.18;1.77;;;;;;;;;;5033304;28;20623;-80
2023/07/31 13:17:50;;;;;;;5.70;2.00;;;;;;;;;;5025479;28;20048;-79
2023/07/31 13:20:17;;;;;;;3.88;1.50;;;;;;;;;;5032278;28;20037;-81
2023/07/31 13:22:44;;;;;;;3.80;1.63;;;;;;;;;;5032703;28;20045;-78
2023/07/31 13:25:12;;;;;;;3.83;1.85;;;;;;;;;;5014895;28;20052;-80
2023/07/31 13:27:39;;;;;;;4.78;2.40;;;;;;;;;;5026280;28;20072;-79
2023/07/31 13:30:06;;;;;;;5.32;1.50;;;;;;;;;;5026597;28;20065;-80
2023/07/31 13:32:38;;;;;;;3.78;1.63;;;;;;;;;;5045623;28;20037;-79
2023/07/31 13:35:06;;;;;;;5.45;1.52;;;;;;;;;;5042649;28;20041;-80
2023/07/31 13:37:32;;;;;;;6.18;1.60;;;;;;;;;;5053105;28;20033;-79
2023/07/31 13:39:59;;;;;;;5.43;1.70;;;;;;;;;;5035634;28;20061;-79
2023/07/31 13:42:28;;;;;;;4.10;1.70;;;;;;;;;;5055724;28;20047;-80
2023/07/31 13:44:56;;;;;;;5.32;1.88;;;;;;;;;;5057673;28;20363;-80
2023/07/31 13:47:22;;;;;;;4.38;1.80;;;;;;;;;;5055118;28;20051;-80
2023/07/31 13:49:49;;;;;;;2.67;1.50;;;;;;;;;;5061303;28;20051;-78
2023/07/31 13:52:15;;;;;;;5.43;1.95;;;;;;;;;;5051097;28;20486;-77
2023/07/31 13:54:42;;;;;;;3.60;1.67;;;;;;;;;;5052425;28;20064;-80
2023/07/31 13:57:09;;;;;;;5.25;1.90;;;;;;;;;;5049942;28;20040;-77
2023/07/31 13:59:36;;;;;;;3.60;1.58;;;;;;;;;;5049317;28;20164;-78
2023/07/31 14:02:03;;;;;;;5.03;1.63;;;;;;;;;;5058472;28;20037;-79
2023/07/31 14:04:30;;;;;;;2.67;1.35;;;;;;;;;;5051568;28;20120;-78
2023/07/31 14:06:56;;;;;;;3.97;1.70;;;;;;;;;;5055922;28;20036;-78
2023/07/31 14:09:23;;;;;;;4.82;2.05;;;;;;;;;;5058259;28;20049;-78
2023/07/31 14:11:50;;;;;;;9.35;2.10;;;;;;;;;;5056577;28;20389;-79
2023/07/31 14:14:17;;;;;;;5.72;1.80;;;;;;;;;;5032383;28;20037;-78
2023/07/31 14:16:44;;;;;;;4.47;1.52;;;;;;;;;;5050271;28;20028;-76
2023/07/31 14:19:11;;;;;;;4.97;1.80;;;;;;;;;;5044841;28;20518;-77
2023/07/31 14:21:38;;;;;;;2.78;1.65;;;;;;;;;;5044812;28;20044;-78
2023/07/31 14:24:04;;;;;;;4.13;1.70;;;;;;;;;;5063283;28;20055;-78
2023/07/31 14:26:31;;;;;;;2.30;1.35;;;;;;;;;;5046504;28;20613;-77
2023/07/31 14:28:57;;;;;;;6.20;1.92;;;;;;;;;;5024517;28;20044;-79
2023/07/31 14:31:24;;;;;;;4.10;1.27;;;;;;;;;;5050423;28;20068;-77
2023/07/31 14:33:51;;;;;;;3.63;1.40;;;;;;;;;;5047240;28;20049;-78
2023/07/31 14:36:17;;;;;;;3.85;1.40;;;;;;;;;;5050807;28;20633;-79
2023/07/31 14:38:44;;;;;;;2.67;1.23;;;;;;;;;;5047516;28;20061;-78
2023/07/31 14:41:12;;;;;;;4.63;1.58;;;;;;;;;;5044016;28;20045;-78
2023/07/31 14:43:38;;;;;;;3.15;1.73;;;;;;;;;;5037821;28;20040;-78
2023/07/31 14:46:05;;;;;;;2.90;1.42;;;;;;;;;;5051433;28;20068;-78